Cornwall, Connecticut
Current Conditions -  °F | °C
As of 5:50 PM on Monday 24 Nov 2014 (Local Time) from KOXC Reporting Station
Few Clouds Few Clouds  
Wind Chill: 57°   Ceiling: Unl
Heat Index: 57°   Visibility: 10mi
Dew Point: 54°   Wind: 7mph
Humidity: 88%   Direction: 220°SW
Pressure: 29.67"   Gusts: 16mph
Location:  41.84°N, 73.33°W
Report Text: KOXC 242250Z 22006G14KT 10SM FEW008 14/12 A2967
Loading
Personal Weather Stations






























Interactive Weather Map New forecast layout! Learn more

10-Day Weather Forecast

Advertisements
Track Severe Weather on mobile